Flight Track Log - Related Links

Times and Time Zones

All times are in EDT time to prevent confusion due to time zone crossing. See the N334ST flight status page for this flight to view local times or setup timezone preferences in your user account.

Time Position Orientation Groundspeed Altitude Reporting Facility
EDT Latitude Longitude Course Direction KTS MPH feet Rate Location/Type
Fri 06:48:22 PM 41.3569 -112.0419 343° North 188 216 7,700  Level Salt Lake Center
Fri 06:49:08 PM 41.3906 -112.0553 346° North 188 216 8,400 1,000 Climbing Salt Lake Center
Fri 06:50:10 PM 41.4433 -112.0733 345° North 192 221 9,500 1,171 Climbing Salt Lake Center
Fri 06:51:11 PM 41.4950 -112.0914 344° North 189 217 10,800 1,268 Climbing Salt Lake Center
Fri 06:52:13 PM 41.5531 -112.1131 345° North 186 214 12,100 1,258 Climbing Salt Lake Center
Fri 06:53:15 PM 41.6039 -112.1311 345° North 186 214 13,400 927 Climbing Salt Lake Center
Fri 06:54:16 PM 41.6567 -112.1497 345° North 192 221 14,000 293 Climbing Salt Lake Center
Fri 06:55:18 PM 41.7183 -112.1711 346° North 224 258 14,000  Level Salt Lake Center
Fri 06:56:20 PM 41.7797 -112.1922 344° North 226 260 14,000  Level Salt Lake Center
Fri 06:57:22 PM 41.8408 -112.2153 345° North 225 259 14,000  Level Salt Lake Center
Fri 06:58:23 PM 41.9033 -112.2375 346° North 228 262 14,000  Level Salt Lake Center
Fri 06:59:25 PM 41.9667 -112.2586 346° North 230 265 14,000 -339 Level Salt Lake Center
Fri 07:00:27 PM 42.0308 -112.2797 346° North 232 267 13,300 -488 Descending Salt Lake Center
Fri 07:01:28 PM 42.0953 -112.3019 347° North 235 270 13,000 -146 Descending Salt Lake Center
Fri 07:02:30 PM 42.1714 -112.3264 345° North 237 273 13,000 -145 Level Salt Lake Center
Fri 07:03:32 PM 42.2361 -112.3494 345° North 238 274 12,700 -439 Descending Salt Lake Center
Fri 07:04:33 PM 42.3014 -112.3739 345° North 239 275 12,100 -341 Descending Salt Lake Center
Fri 07:05:35 PM 42.3656 -112.3975 346° North 238 274 12,000 -48 Descending Salt Lake Center
Fri 07:06:37 PM 42.4317 -112.4192 345° North 234 269 12,000  Level Salt Lake Center
Fri 07:07:38 PM 42.4908 -112.4406 344° North 232 267 12,000  Level Salt Lake Center
Fri 07:08:40 PM 42.5589 -112.4675 337° Northwest 229 264 12,000 -242 Level Salt Lake Center
Fri 07:09:42 PM 42.6136 -112.4994 335° Northwest 225 259 11,500 -488 Descending Salt Lake Center
Fri 07:10:43 PM 42.6692 -112.5339 337° Northwest 224 258 11,000 -537 Descending Salt Lake Center
Fri 07:11:45 PM 42.7344 -112.5722 338° Northwest 226 260 10,400 -484 Descending Salt Lake Center
Fri 07:12:47 PM 42.7886 -112.6028 337° Northwest 224 258 10,000 -195 Descending Salt Lake Center
Fri 07:13:48 PM 42.8503 -112.6381 26° Northeast 221 254 10,000  Level Salt Lake Center
Fri 07:14:50 PM 42.8972 -112.6064 47° Northeast 222 255 10,000 -581 Level Salt Lake Center
Fri 07:15:52 PM 42.9444 -112.5378 43° Northeast 223 257 8,800 -927 Descending Salt Lake Center
Fri 07:16:53 PM 42.9833 -112.4883 282° West 217 250 8,100 -1,512 Descending Salt Lake Center
Fri 07:17:55 PM 42.9883 -112.5200 190° South 165 190 5,700 -1,452 Descending Salt Lake Center
Fri 07:18:57 PM 42.9500 -112.5292 224° Southwest 138 159 5,100 -439 Descending Salt Lake Center
Fri 07:19:58 PM 42.9256 -112.5614 224° Southwest 124 143 4,800 -295 Descending Salt Lake Center

Login

Don't have an account? Register now (free) for customized features, flight alerts, and more!